createdAt,value
2022-08-30T00:00:14.891Z,991.52
2022-08-30T00:01:18.106Z,991.45
2022-08-30T00:02:25.272Z,991.49
2022-08-30T00:03:25.476Z,991.47
2022-08-30T00:04:21.789Z,991.47
2022-08-30T00:05:24.756Z,991.46
2022-08-30T00:06:27.648Z,991.48
2022-08-30T00:07:30.992Z,991.46
2022-08-30T00:08:36.777Z,991.46
2022-08-30T00:09:36.178Z,991.44
2022-08-30T00:10:39.007Z,991.44
2022-08-30T00:11:42.747Z,991.46
2022-08-30T00:12:42.175Z,991.47
2022-08-30T00:13:44.981Z,991.45
2022-08-30T00:14:47.798Z,991.48
2022-08-30T00:15:50.934Z,991.49
2022-08-30T00:16:53.944Z,991.5
2022-08-30T00:17:56.798Z,991.53
2022-08-30T00:18:59.598Z,991.55
2022-08-30T00:20:02.392Z,991.53
2022-08-30T00:21:05.248Z,991.5
2022-08-30T00:22:08.059Z,991.53
2022-08-30T00:23:10.881Z,991.51
2022-08-30T00:24:13.719Z,991.51
2022-08-30T00:25:16.531Z,991.48
2022-08-30T00:26:19.328Z,991.51
2022-08-30T00:27:22.172Z,991.55
2022-08-30T00:28:25.142Z,991.53
2022-08-30T00:29:28.037Z,991.56
2022-08-30T00:30:30.874Z,991.56
2022-08-30T00:31:33.976Z,991.56
2022-08-30T00:32:37.050Z,991.54
2022-08-30T00:33:39.854Z,991.6
2022-08-30T00:34:42.718Z,991.59
2022-08-30T00:35:45.653Z,991.6
2022-08-30T00:36:48.487Z,991.59
2022-08-30T00:37:51.310Z,991.6
2022-08-30T00:38:54.266Z,991.6
2022-08-30T00:39:57.487Z,991.6
2022-08-30T00:41:00.309Z,991.59
2022-08-30T00:42:03.134Z,991.61
2022-08-30T00:43:06.264Z,991.61
2022-08-30T00:44:09.117Z,991.64
2022-08-30T00:45:11.917Z,991.61
2022-08-30T00:46:15.039Z,991.6
2022-08-30T00:47:17.868Z,991.62
2022-08-30T00:48:20.709Z,991.57
2022-08-30T00:49:23.526Z,991.59
2022-08-30T00:50:26.323Z,991.61
2022-08-30T00:51:29.125Z,991.63
2022-08-30T09:20:49.785Z,991.3
2022-08-30T09:34:58.608Z,991.15
2022-08-30T09:36:01.522Z,991.1
2022-08-30T09:37:05.143Z,991.07
2022-08-30T09:38:04.565Z,991.04
2022-08-30T09:39:07.781Z,991.02
2022-08-30T09:40:10.913Z,991.04
2022-08-30T09:41:15.038Z,991.05
2022-08-30T09:42:14.446Z,990.97
2022-08-30T09:43:17.958Z,990.97
